createdAt,value
2018-08-28T00:02:10.937Z,99.90
2018-08-28T00:04:40.106Z,99.90
2018-08-28T00:07:09.447Z,99.90
2018-08-28T00:09:38.916Z,99.90
2018-08-28T00:12:08.521Z,99.90
2018-08-28T00:14:37.834Z,99.90
2018-08-28T00:17:07.069Z,99.90
2018-08-28T00:19:36.199Z,99.90
2018-08-28T00:22:05.390Z,99.90
2018-08-28T00:24:34.525Z,99.90
2018-08-28T00:27:03.657Z,99.90
2018-08-28T00:29:33.401Z,99.90
2018-08-28T00:32:02.567Z,99.90
2018-08-28T00:34:31.829Z,99.90
2018-08-28T00:37:00.929Z,99.90
2018-08-28T00:39:30.378Z,99.90
2018-08-28T00:41:59.546Z,99.90
2018-08-28T00:44:28.667Z,99.90
2018-08-28T00:46:57.810Z,99.90
2018-08-28T00:49:26.931Z,99.90
2018-08-28T00:51:56.094Z,99.90
2018-08-28T00:54:25.245Z,99.90
2018-08-28T00:56:54.341Z,99.90
2018-08-28T00:59:23.465Z,99.90
2018-08-28T01:01:52.609Z,99.90
2018-08-28T01:04:22.202Z,99.90
2018-08-28T01:06:51.510Z,99.90
2018-08-28T01:09:21.173Z,99.90
2018-08-28T01:11:50.610Z,99.90
2018-08-28T01:14:19.382Z,99.90
2018-08-28T01:16:48.505Z,99.90
2018-08-28T01:19:17.648Z,99.90
2018-08-28T01:21:46.778Z,99.90
2018-08-28T01:24:15.909Z,99.90
2018-08-28T01:26:45.046Z,99.90
2018-08-28T01:29:15.028Z,99.90
2018-08-28T01:31:44.140Z,99.90
2018-08-28T01:34:13.267Z,99.90
2018-08-28T01:36:42.749Z,99.90
2018-08-28T01:39:11.913Z,99.90
2018-08-28T01:41:41.027Z,99.90
2018-08-28T01:44:10.181Z,99.90
2018-08-28T01:46:39.278Z,99.90
2018-08-28T01:49:08.421Z,99.90
2018-08-28T01:51:37.538Z,99.90
2018-08-28T01:54:06.666Z,99.90
2018-08-28T01:56:35.842Z,99.90
2018-08-28T01:59:05.018Z,99.90
2018-08-28T02:01:34.131Z,99.90
2018-08-28T02:04:03.421Z,99.90
2018-08-28T02:06:33.086Z,99.90
2018-08-28T02:09:02.201Z,99.90
2018-08-28T02:11:31.341Z,99.90
2018-08-28T02:14:00.447Z,99.90
2018-08-28T02:16:30.242Z,99.90
2018-08-28T02:18:59.893Z,99.90
2018-08-28T02:21:29.063Z,99.90
2018-08-28T02:23:58.333Z,99.90
2018-08-28T02:26:27.465Z,99.90
2018-08-28T02:28:56.573Z,99.90
2018-08-28T02:31:25.719Z,99.90
2018-08-28T02:33:54.885Z,99.90
2018-08-28T02:36:24.699Z,99.90
2018-08-28T02:38:54.658Z,99.90
2018-08-28T02:41:23.783Z,99.90
2018-08-28T02:43:52.906Z,99.90
2018-08-28T02:46:22.073Z,99.90
2018-08-28T02:48:51.235Z,99.90
2018-08-28T02:51:20.361Z,99.90
2018-08-28T02:53:49.506Z,99.90
2018-08-28T02:56:18.649Z,99.90
2018-08-28T02:58:48.164Z,99.90
2018-08-28T03:01:17.325Z,99.90
2018-08-28T03:03:46.489Z,99.90
2018-08-28T03:06:16.141Z,99.90
2018-08-28T03:08:45.258Z,99.90
2018-08-28T03:11:14.493Z,99.90
2018-08-28T03:13:44.518Z,99.90
2018-08-28T03:16:13.931Z,99.90
2018-08-28T03:18:42.930Z,99.90
2018-08-28T03:21:12.083Z,99.90
2018-08-28T03:23:41.465Z,99.90
2018-08-28T03:26:10.966Z,99.90
2018-08-28T03:28:40.252Z,99.90
2018-08-28T03:31:09.442Z,99.90
2018-08-28T03:33:38.742Z,99.90
2018-08-28T03:36:07.853Z,99.90
2018-08-28T03:38:37.292Z,99.90
2018-08-28T03:41:06.430Z,99.90
2018-08-28T03:43:36.007Z,99.90
2018-08-28T03:46:05.157Z,99.90
2018-08-28T03:48:34.259Z,99.90
2018-08-28T03:51:03.394Z,99.90
2018-08-28T03:53:33.067Z,99.90
2018-08-28T03:56:02.175Z,99.90
2018-08-28T03:58:31.374Z,99.90
2018-08-28T04:01:00.515Z,99.90
2018-08-28T04:03:29.689Z,99.90
2018-08-28T04:05:58.805Z,99.90
2018-08-28T04:08:28.613Z,99.90
2018-08-28T04:10:57.737Z,99.90
2018-08-28T04:13:26.869Z,99.90
2018-08-28T04:15:55.996Z,99.90
2018-08-28T04:18:25.220Z,99.90
2018-08-28T04:20:54.843Z,99.90
2018-08-28T04:23:24.114Z,99.90
2018-08-28T04:25:54.415Z,99.90
2018-08-28T04:28:26.172Z,99.90
2018-08-28T04:30:55.724Z,99.90
2018-08-28T04:33:24.816Z,99.90
2018-08-28T04:35:53.937Z,99.90
2018-08-28T04:38:23.312Z,99.90
2018-08-28T04:40:52.423Z,99.90
2018-08-28T04:43:21.514Z,99.90
2018-08-28T04:45:50.694Z,99.90
2018-08-28T04:48:19.846Z,99.90
2018-08-28T04:50:48.983Z,99.90
2018-08-28T04:53:18.170Z,99.90
2018-08-28T04:55:47.982Z,99.90
2018-08-28T04:58:17.131Z,99.90
2018-08-28T05:00:46.351Z,99.90
2018-08-28T05:03:15.755Z,99.90
2018-08-28T05:05:44.922Z,99.90
2018-08-28T05:08:14.333Z,99.90
2018-08-28T05:10:43.462Z,99.90
2018-08-28T05:13:12.563Z,99.90
2018-08-28T05:15:41.942Z,99.90
2018-08-28T05:18:11.070Z,99.90
2018-08-28T05:20:40.330Z,99.90
2018-08-28T05:23:09.722Z,99.90
2018-08-28T05:25:39.602Z,99.90
2018-08-28T05:28:08.735Z,99.90
2018-08-28T05:30:37.915Z,99.90
2018-08-28T05:33:07.219Z,99.90
2018-08-28T05:35:36.346Z,99.90
2018-08-28T05:38:05.497Z,99.90
2018-08-28T05:40:34.606Z,99.90
2018-08-28T05:43:03.794Z,99.90
2018-08-28T05:45:32.915Z,99.90
2018-08-28T05:48:02.090Z,99.90
2018-08-28T05:50:31.202Z,99.90
2018-08-28T05:53:00.346Z,99.90
2018-08-28T05:55:29.573Z,99.90
2018-08-28T05:57:58.694Z,99.90
2018-08-28T06:00:27.822Z,99.90
2018-08-28T06:02:56.953Z,99.90
2018-08-28T06:05:26.026Z,99.90
2018-08-28T06:07:55.147Z,99.90
2018-08-28T06:10:24.954Z,99.90
2018-08-28T06:12:54.074Z,99.90
2018-08-28T06:15:23.183Z,99.90
2018-08-28T06:17:52.314Z,99.90
2018-08-28T06:20:21.567Z,99.90
2018-08-28T06:22:52.519Z,99.90
2018-08-28T06:25:21.695Z,99.90
2018-08-28T06:27:50.814Z,99.90
2018-08-28T06:30:19.969Z,99.90
2018-08-28T06:32:49.410Z,99.90
2018-08-28T06:35:18.651Z,99.90
2018-08-28T06:37:47.795Z,99.90
2018-08-28T06:40:16.936Z,99.90
2018-08-28T06:42:46.430Z,99.90
2018-08-28T06:45:18.380Z,99.90
2018-08-28T06:47:47.515Z,99.90
2018-08-28T06:50:16.631Z,99.90
2018-08-28T06:52:45.746Z,99.90
2018-08-28T06:55:15.472Z,99.90
2018-08-28T06:57:44.595Z,99.90
2018-08-28T07:00:13.706Z,99.90
2018-08-28T07:02:42.853Z,99.90
2018-08-28T07:05:11.982Z,99.90
2018-08-28T07:07:41.151Z,99.90
2018-08-28T07:10:10.302Z,99.90
2018-08-28T07:12:39.953Z,99.90
2018-08-28T07:15:09.519Z,99.90
2018-08-28T07:17:38.655Z,99.90
2018-08-28T07:20:07.970Z,99.90
2018-08-28T07:22:37.246Z,99.90
2018-08-28T07:25:06.859Z,99.90
2018-08-28T07:27:36.006Z,99.90
2018-08-28T07:30:06.089Z,99.90
2018-08-28T07:32:35.830Z,99.90
2018-08-28T07:35:05.702Z,99.90
2018-08-28T07:37:34.951Z,99.90
2018-08-28T07:40:04.752Z,99.90
2018-08-28T07:42:34.729Z,99.70
2018-08-28T07:45:04.533Z,98.50
2018-08-28T07:47:33.650Z,98.20
2018-08-28T07:50:02.972Z,97.80
2018-08-28T07:52:32.103Z,97.20
2018-08-28T07:55:01.223Z,97.90
2018-08-28T07:57:30.839Z,98.30
2018-08-28T07:59:59.962Z,97.90
2018-08-28T08:02:29.358Z,97.60
2018-08-28T08:04:58.930Z,96.80
2018-08-28T08:07:28.042Z,96.10
2018-08-28T08:09:57.150Z,96.30
2018-08-28T08:12:26.275Z,94.90
2018-08-28T08:14:55.394Z,94.40
2018-08-28T08:17:25.195Z,94.10
2018-08-28T08:19:54.333Z,93.40
2018-08-28T08:22:23.675Z,92.90
2018-08-28T08:24:52.938Z,90.20
2018-08-28T08:27:22.249Z,88.90
2018-08-28T08:29:50.999Z,87.80
2018-08-28T08:32:20.097Z,85.50
2018-08-28T08:34:49.202Z,84.40
2018-08-28T08:37:18.306Z,86.20
2018-08-28T08:39:47.450Z,85.50
2018-08-28T08:42:16.957Z,86.50
2018-08-28T08:44:46.200Z,87.70
2018-08-28T08:47:15.355Z,89.70
2018-08-28T08:49:44.475Z,89.70
2018-08-28T08:52:14.278Z,87.20
2018-08-28T08:54:43.738Z,88.80
2018-08-28T08:57:13.214Z,91.40
2018-08-28T08:59:42.378Z,91.00
2018-08-28T09:02:11.551Z,88.80
2018-08-28T09:04:41.290Z,87.90
2018-08-28T09:07:10.447Z,87.70
2018-08-28T09:09:39.615Z,87.10
2018-08-28T09:12:08.747Z,85.30
2018-08-28T09:14:37.835Z,88.80
2018-08-28T09:17:07.917Z,85.90
2018-08-28T09:19:37.503Z,84.50
2018-08-28T09:22:06.654Z,81.00
2018-08-28T09:24:35.497Z,83.50
2018-08-28T09:27:04.611Z,82.30
2018-08-28T09:29:34.201Z,80.00
2018-08-28T09:32:03.418Z,78.30
2018-08-28T09:34:32.523Z,75.60
2018-08-28T09:37:01.643Z,75.50
2018-08-28T09:39:30.797Z,74.90
2018-08-28T09:41:59.967Z,73.30
2018-08-28T09:44:29.257Z,71.50
2018-08-28T09:46:58.406Z,73.00
2018-08-28T09:49:27.515Z,74.20
2018-08-28T09:51:56.846Z,74.90
2018-08-28T09:54:26.017Z,74.60
2018-08-28T09:56:55.148Z,74.40
2018-08-28T09:59:24.306Z,74.80
2018-08-28T10:01:53.429Z,74.10
2018-08-28T10:04:22.691Z,71.80
2018-08-28T10:06:51.822Z,68.60
2018-08-28T10:09:20.935Z,67.70
2018-08-28T10:11:50.106Z,66.20
2018-08-28T10:14:19.261Z,62.50
2018-08-28T10:16:48.441Z,66.70
2018-08-28T10:19:17.567Z,66.60
2018-08-28T10:21:47.439Z,65.80
2018-08-28T10:24:16.807Z,67.30
2018-08-28T10:26:46.095Z,67.40
2018-08-28T10:29:14.984Z,65.70
2018-08-28T10:31:44.115Z,63.30
2018-08-28T10:34:13.218Z,62.80
2018-08-28T10:36:42.737Z,65.10
2018-08-28T10:39:11.880Z,67.20
2018-08-28T10:41:41.058Z,72.10
2018-08-28T10:44:10.851Z,72.00
2018-08-28T10:46:40.033Z,70.70
2018-08-28T10:49:09.088Z,70.00
2018-08-28T10:51:38.205Z,67.30
2018-08-28T10:54:07.619Z,65.00
2018-08-28T10:56:36.758Z,63.60
2018-08-28T10:59:06.842Z,63.60
2018-08-28T11:01:36.014Z,63.00
2018-08-28T11:04:05.130Z,63.60
2018-08-28T11:06:34.262Z,62.80
2018-08-28T11:09:03.618Z,59.20
2018-08-28T11:11:32.735Z,58.00
2018-08-28T11:14:01.926Z,56.90
2018-08-28T11:16:31.146Z,59.80
2018-08-28T11:19:00.778Z,60.50
2018-08-28T11:21:29.885Z,60.90
2018-08-28T11:23:59.041Z,58.90
2018-08-28T11:26:28.310Z,58.10
2018-08-28T11:28:57.418Z,58.30
2018-08-28T11:31:26.617Z,59.90
2018-08-28T11:33:55.922Z,58.70
2018-08-28T11:36:25.070Z,59.50
2018-08-28T11:38:54.198Z,60.80
2018-08-28T11:41:23.305Z,63.20
2018-08-28T11:43:52.465Z,65.50
2018-08-28T11:46:21.597Z,64.30
2018-08-28T11:48:50.714Z,61.50
2018-08-28T11:51:19.839Z,60.00
2018-08-28T11:53:48.952Z,58.70
2018-08-28T11:56:18.067Z,58.50
2018-08-28T11:58:47.190Z,57.10
2018-08-28T12:01:16.306Z,57.00
2018-08-28T12:03:45.438Z,58.40
2018-08-28T12:06:14.618Z,60.30
2018-08-28T12:08:44.322Z,58.70
2018-08-28T12:11:13.458Z,58.70
2018-08-28T12:13:42.650Z,58.60
2018-08-28T12:16:11.818Z,58.50
2018-08-28T12:18:40.958Z,57.80
2018-08-28T12:21:10.278Z,56.60
2018-08-28T12:23:39.441Z,59.00
2018-08-28T12:26:08.566Z,60.30
2018-08-28T12:28:37.342Z,62.40
2018-08-28T12:31:06.455Z,62.60
2018-08-28T12:33:35.566Z,62.80
2018-08-28T12:36:04.879Z,61.80
2018-08-28T12:38:34.182Z,60.20
2018-08-28T12:41:03.298Z,62.20
2018-08-28T12:43:32.468Z,61.90
2018-08-28T12:46:01.947Z,61.00
2018-08-28T12:48:31.298Z,63.00
2018-08-28T12:51:00.449Z,64.70
2018-08-28T12:53:29.566Z,65.30
2018-08-28T12:55:58.778Z,67.40
2018-08-28T12:58:27.882Z,67.60
2018-08-28T13:00:57.084Z,68.00
2018-08-28T13:03:26.303Z,67.90
2018-08-28T13:05:55.465Z,68.80
2018-08-28T13:08:25.014Z,68.10
2018-08-28T13:10:54.189Z,68.60
2018-08-28T13:13:23.330Z,69.40
2018-08-28T13:15:52.444Z,70.20
2018-08-28T13:18:22.261Z,69.90
2018-08-28T13:20:51.402Z,68.10
2018-08-28T13:23:21.282Z,64.90
2018-08-28T13:25:50.501Z,63.70
2018-08-28T13:28:20.186Z,62.40
2018-08-28T13:30:49.392Z,60.80
2018-08-28T13:33:18.505Z,59.50
2018-08-28T13:35:47.620Z,59.90
2018-08-28T13:38:16.779Z,60.60
2018-08-28T13:40:46.122Z,60.80
2018-08-28T13:43:15.563Z,59.60
2018-08-28T13:45:44.742Z,58.30
2018-08-28T13:48:14.658Z,58.00
2018-08-28T13:50:43.781Z,58.50
2018-08-28T13:53:13.002Z,58.70
2018-08-28T13:55:42.098Z,60.90
2018-08-28T13:58:11.226Z,63.50
2018-08-28T14:00:40.546Z,63.10
2018-08-28T14:03:09.670Z,63.40
2018-08-28T14:05:39.098Z,63.90
2018-08-28T14:08:08.275Z,61.40
2018-08-28T14:10:37.415Z,61.20
2018-08-28T14:13:07.211Z,61.30
2018-08-28T14:15:36.407Z,60.60
2018-08-28T14:18:06.206Z,60.10
2018-08-28T14:20:35.434Z,63.50
2018-08-28T14:23:04.591Z,64.40
2018-08-28T14:25:34.703Z,62.70
2018-08-28T14:28:03.833Z,59.60
2018-08-28T14:30:33.286Z,58.40
2018-08-28T14:33:02.558Z,57.40
2018-08-28T14:35:31.851Z,57.80
2018-08-28T14:38:01.515Z,57.10
2018-08-28T14:40:30.929Z,55.80
2018-08-28T14:43:00.504Z,56.50
2018-08-28T14:45:29.742Z,57.00
2018-08-28T14:47:58.985Z,57.10
2018-08-28T14:50:28.672Z,58.30
2018-08-28T14:52:58.290Z,57.20
2018-08-28T14:55:27.551Z,56.40
2018-08-28T14:57:56.767Z,57.80
2018-08-28T15:00:25.790Z,57.80
2018-08-28T15:02:54.922Z,58.40
2018-08-28T15:05:24.253Z,59.10
2018-08-28T15:07:53.822Z,58.80
2018-08-28T15:10:22.930Z,59.30
2018-08-28T15:12:52.547Z,60.10
2018-08-28T15:15:21.731Z,60.70
2018-08-28T15:17:50.902Z,60.90
2018-08-28T15:20:20.035Z,62.20
2018-08-28T15:22:49.159Z,60.30
2018-08-28T15:25:18.314Z,59.40
2018-08-28T15:27:47.458Z,59.50
2018-08-28T15:30:16.591Z,62.00
2018-08-28T15:32:45.770Z,62.70
2018-08-28T15:35:15.027Z,59.80
2018-08-28T15:37:44.390Z,59.60
2018-08-28T15:40:13.863Z,58.30
2018-08-28T15:42:43.019Z,58.20
2018-08-28T15:45:12.194Z,58.60
2018-08-28T15:47:41.574Z,59.40
2018-08-28T15:50:10.773Z,62.60
2018-08-28T15:52:39.902Z,60.60
2018-08-28T15:55:09.067Z,59.30
2018-08-28T15:57:38.250Z,61.30
2018-08-28T16:00:08.075Z,62.80
2018-08-28T16:02:37.274Z,62.40
2018-08-28T16:05:06.997Z,62.40
2018-08-28T16:07:36.297Z,62.20
2018-08-28T16:10:05.643Z,62.10
2018-08-28T16:12:34.828Z,61.60
2018-08-28T16:15:03.977Z,62.70
2018-08-28T16:17:33.118Z,63.80
2018-08-28T16:20:02.272Z,64.00
2018-08-28T16:22:35.702Z,64.00
2018-08-28T16:25:05.130Z,64.00
2018-08-28T16:27:34.264Z,63.40
2018-08-28T16:30:03.422Z,63.70
2018-08-28T16:32:32.647Z,64.80
2018-08-28T16:35:01.924Z,66.70
2018-08-28T16:37:31.118Z,67.10
2018-08-28T16:39:59.902Z,67.40
2018-08-28T16:42:29.087Z,67.30
2018-08-28T16:44:58.214Z,67.20
2018-08-28T16:47:27.534Z,68.10
2018-08-28T16:49:56.750Z,68.20
2018-08-28T16:52:25.822Z,68.30
2018-08-28T16:54:54.949Z,68.70
2018-08-28T16:57:24.109Z,68.70
2018-08-28T16:59:53.227Z,68.80
2018-08-28T17:02:22.721Z,70.40
2018-08-28T17:04:51.877Z,68.20
2018-08-28T17:07:21.077Z,68.30
2018-08-28T17:09:51.275Z,70.00
2018-08-28T17:12:21.081Z,71.50
2018-08-28T17:14:51.041Z,71.90
2018-08-28T17:17:20.128Z,72.80
2018-08-28T17:19:49.491Z,73.40
2018-08-28T17:22:19.006Z,74.50
2018-08-28T17:24:48.843Z,74.90
2018-08-28T17:27:17.921Z,75.80
2018-08-28T17:29:47.063Z,75.70
2018-08-28T17:32:16.258Z,76.00
2018-08-28T17:34:45.562Z,76.80
2018-08-28T17:37:15.110Z,77.50
2018-08-28T17:39:44.721Z,77.30
2018-08-28T17:42:13.839Z,77.50
2018-08-28T17:44:43.258Z,78.30
2018-08-28T17:47:12.503Z,77.50
2018-08-28T17:49:41.582Z,78.50
2018-08-28T17:52:11.043Z,79.50
2018-08-28T17:54:40.537Z,79.10
2018-08-28T17:57:09.967Z,81.20
2018-08-28T17:59:39.097Z,82.50
2018-08-28T18:02:08.974Z,82.00
2018-08-28T18:04:38.087Z,81.20
2018-08-28T18:07:07.198Z,82.00
2018-08-28T18:09:36.520Z,82.40
2018-08-28T18:12:05.621Z,84.00
2018-08-28T18:14:34.862Z,82.90
2018-08-28T18:17:04.509Z,81.80
2018-08-28T18:19:34.275Z,81.40
2018-08-28T18:22:03.439Z,81.20
2018-08-28T18:24:32.582Z,82.10
2018-08-28T18:27:01.693Z,83.80
2018-08-28T18:29:30.854Z,85.20
2018-08-28T18:32:00.015Z,87.00
2018-08-28T18:34:29.374Z,87.90
2018-08-28T18:36:58.486Z,89.50
2018-08-28T18:39:27.626Z,89.90
2018-08-28T18:41:57.274Z,89.80
2018-08-28T18:44:26.653Z,90.10
2018-08-28T18:46:56.313Z,90.30
2018-08-28T18:49:25.472Z,90.50
2018-08-28T18:51:54.862Z,91.60
2018-08-28T18:54:24.003Z,91.80
2018-08-28T18:56:53.134Z,92.00
2018-08-28T18:59:22.003Z,92.70
2018-08-28T19:01:51.122Z,92.20
2018-08-28T19:04:20.275Z,92.80
2018-08-28T19:06:49.430Z,93.80
2018-08-28T19:09:19.226Z,93.40
2018-08-28T19:11:48.286Z,94.10
2018-08-28T19:14:17.426Z,94.10
2018-08-28T19:16:46.558Z,94.20
2018-08-28T19:19:15.958Z,94.30
2018-08-28T19:21:45.153Z,92.60
2018-08-28T19:24:14.294Z,91.60
2018-08-28T19:26:43.478Z,91.80
2018-08-28T19:29:12.628Z,90.80
2018-08-28T19:31:41.817Z,90.40
2018-08-28T19:34:10.962Z,90.40
2018-08-28T19:36:40.110Z,90.30
2018-08-28T19:39:09.225Z,90.40
2018-08-28T19:41:38.359Z,90.40
2018-08-28T19:44:07.536Z,90.60
2018-08-28T19:46:36.674Z,91.10
2018-08-28T19:49:06.903Z,91.40
2018-08-28T19:51:36.030Z,91.20
2018-08-28T19:54:05.197Z,91.40
2018-08-28T19:56:34.350Z,91.40
2018-08-28T19:59:03.591Z,91.60
2018-08-28T20:01:32.982Z,92.00
2018-08-28T20:04:02.239Z,91.90
2018-08-28T20:06:31.300Z,92.00
2018-08-28T20:09:00.608Z,92.20
2018-08-28T20:11:29.903Z,92.60
2018-08-28T20:13:59.025Z,93.00
2018-08-28T20:16:28.163Z,92.60
2018-08-28T20:18:57.358Z,92.90
2018-08-28T20:21:26.757Z,92.80
2018-08-28T20:23:55.897Z,93.20
2018-08-28T20:26:25.019Z,93.00
2018-08-28T20:28:54.306Z,93.20
2018-08-28T20:31:23.483Z,93.30
2018-08-28T20:33:52.633Z,93.30
2018-08-28T20:36:21.739Z,94.10
2018-08-28T20:38:50.910Z,93.70
2018-08-28T20:41:20.034Z,93.60
2018-08-28T20:43:49.178Z,93.80
2018-08-28T20:46:18.390Z,93.50
2018-08-28T20:48:47.882Z,93.90
2018-08-28T20:51:17.063Z,93.90
2018-08-28T20:53:46.298Z,93.90
2018-08-28T20:56:16.090Z,94.10
2018-08-28T20:58:46.018Z,94.80
2018-08-28T21:01:15.908Z,94.50
2018-08-28T21:03:45.935Z,94.40
2018-08-28T21:06:15.821Z,94.60
2018-08-28T21:08:45.675Z,95.00
2018-08-28T21:11:14.369Z,94.90
2018-08-28T21:13:43.585Z,94.40
2018-08-28T21:16:12.713Z,95.30
2018-08-28T21:18:41.914Z,95.10
2018-08-28T21:21:11.122Z,95.40
2018-08-28T21:23:40.255Z,95.40
2018-08-28T21:26:09.423Z,96.30
2018-08-28T21:28:38.549Z,97.00
2018-08-28T21:31:07.658Z,97.90
2018-08-28T21:33:36.841Z,98.60
2018-08-28T21:36:05.948Z,99.40
2018-08-28T21:38:35.064Z,99.80
2018-08-28T21:41:04.239Z,99.90
2018-08-28T21:43:33.778Z,99.90
2018-08-28T21:46:02.924Z,99.90
2018-08-28T21:48:32.026Z,99.90
2018-08-28T21:51:01.155Z,99.90
2018-08-28T21:53:30.302Z,99.90
2018-08-28T21:55:59.422Z,99.90
2018-08-28T21:58:28.536Z,99.90
2018-08-28T22:01:02.990Z,99.90
2018-08-28T22:03:32.357Z,99.90
2018-08-28T22:06:02.099Z,99.90
2018-08-28T22:08:31.518Z,99.90
2018-08-28T22:11:01.899Z,99.90
2018-08-28T22:13:31.285Z,99.90
2018-08-28T22:16:00.537Z,99.90
2018-08-28T22:18:31.530Z,99.90
2018-08-28T22:21:00.617Z,99.90
2018-08-28T22:23:29.721Z,99.90
2018-08-28T22:25:58.834Z,99.90
2018-08-28T22:28:27.930Z,99.90
2018-08-28T22:30:57.007Z,99.90
2018-08-28T22:33:26.306Z,99.90
2018-08-28T22:35:55.374Z,99.90
2018-08-28T22:38:24.478Z,99.90
2018-08-28T22:40:53.582Z,99.90
2018-08-28T22:43:23.770Z,99.90
2018-08-28T22:45:53.052Z,99.90
2018-08-28T22:48:22.142Z,99.90
2018-08-28T22:50:51.242Z,99.90
2018-08-28T22:53:20.369Z,99.90
2018-08-28T22:55:49.494Z,99.90
2018-08-28T22:58:18.894Z,99.90
2018-08-28T23:00:48.042Z,99.90
2018-08-28T23:03:17.120Z,99.90
2018-08-28T23:05:46.537Z,99.90
2018-08-28T23:08:15.638Z,99.90
2018-08-28T23:10:45.250Z,99.90
2018-08-28T23:13:14.347Z,99.90
2018-08-28T23:15:43.430Z,99.90
2018-08-28T23:18:12.538Z,99.90
2018-08-28T23:20:41.637Z,99.90
2018-08-28T23:23:10.762Z,99.90
2018-08-28T23:25:39.856Z,99.90
2018-08-28T23:28:08.942Z,99.90
2018-08-28T23:30:38.106Z,99.90
2018-08-28T23:33:07.206Z,99.90
2018-08-28T23:35:36.307Z,99.90
2018-08-28T23:38:05.497Z,99.90
2018-08-28T23:40:35.147Z,99.90
2018-08-28T23:43:04.278Z,99.90
2018-08-28T23:45:33.385Z,99.90
2018-08-28T23:48:02.474Z,99.90
2018-08-28T23:50:31.608Z,99.90
2018-08-28T23:53:00.694Z,99.90
2018-08-28T23:55:29.790Z,99.90
2018-08-28T23:57:59.718Z,99.90
